createdAt,value
2022-12-15T00:02:15.442Z,98050.94
2022-12-15T00:05:01.003Z,98061.72
2022-12-15T00:07:46.338Z,98068.59
2022-12-15T00:10:31.594Z,98068.84
2022-12-15T00:13:16.838Z,98069.31
2022-12-15T00:16:05.000Z,98069.59
2022-12-15T00:18:50.418Z,98065.19
2022-12-15T00:21:35.725Z,98055.94
2022-12-15T00:24:20.981Z,98062.66
2022-12-15T00:27:06.158Z,98068.09
2022-12-15T00:29:51.507Z,98063.63
2022-12-15T00:32:36.401Z,98074.97
2022-12-15T00:35:21.836Z,98072.78
2022-12-15T00:38:06.827Z,98079.28
2022-12-15T00:40:33.538Z,98085.47
2022-12-15T00:43:00.145Z,98079.38
2022-12-15T00:45:46.801Z,98078.19
2022-12-15T00:48:13.519Z,98088.81
2022-12-15T00:50:52.313Z,98096.16
2022-12-15T00:53:41.491Z,98103.41
2022-12-15T00:56:27.687Z,98101.81
2022-12-15T00:59:13.718Z,98096.97
2022-12-15T01:01:59.288Z,98097.59
2022-12-15T01:04:45.006Z,98111.13
2022-12-15T01:07:30.082Z,98117.50
2022-12-15T01:10:15.327Z,98099.03
2022-12-15T01:13:00.803Z,98115.00
2022-12-15T01:15:46.094Z,98111.09
2022-12-15T01:18:31.258Z,98120.63
2022-12-15T01:21:06.683Z,98129.75
2022-12-15T01:23:33.866Z,98114.72
2022-12-15T01:26:01.042Z,98127.69
2022-12-15T01:28:28.050Z,98130.19
2022-12-15T01:30:54.975Z,98127.38
2022-12-15T01:33:22.166Z,98123.38
2022-12-15T01:36:01.838Z,98120.34
2022-12-15T01:38:29.023Z,98117.53
2022-12-15T01:40:59.452Z,98136.16
2022-12-15T01:43:30.467Z,98129.63
2022-12-15T01:46:09.151Z,98141.06
2022-12-15T01:48:38.083Z,98154.41
2022-12-15T01:51:23.816Z,98156.28
2022-12-15T01:53:56.078Z,98150.56
2022-12-15T01:56:24.379Z,98144.31
2022-12-15T01:58:53.906Z,98148.19
2022-12-15T02:01:20.821Z,98148.19
2022-12-15T02:03:48.392Z,98158.16
2022-12-15T02:06:15.910Z,98161.16
2022-12-15T02:08:45.450Z,98159.09
2022-12-15T02:11:24.118Z,98171.25
2022-12-15T02:14:07.780Z,98168.31
2022-12-15T02:16:57.683Z,98184.13
2022-12-15T02:19:58.606Z,98180.47
2022-12-15T02:22:33.956Z,98189.19
2022-12-15T02:25:00.563Z,98205.63
2022-12-15T02:27:42.126Z,98203.59
2022-12-15T02:30:21.292Z,98193.03
2022-12-15T02:32:47.865Z,98197.53
2022-12-15T02:35:20.992Z,98196.16
2022-12-15T02:37:49.858Z,98221.28
2022-12-15T02:40:17.197Z,98208.88
2022-12-15T02:42:51.781Z,98214.22
2022-12-15T02:45:33.284Z,98212.56
2022-12-15T02:48:12.395Z,98226.75
2022-12-15T02:50:51.171Z,98221.94
2022-12-15T02:53:30.288Z,98230.09
2022-12-15T02:56:26.398Z,98230.28
2022-12-15T02:58:53.013Z,98224.63
2022-12-15T03:01:26.757Z,98229.03
2022-12-15T03:03:54.015Z,98222.75
2022-12-15T03:06:20.727Z,98225.50
2022-12-15T03:08:47.447Z,98232.72
2022-12-15T03:11:14.088Z,98234.72
2022-12-15T03:13:40.807Z,98250.25
2022-12-15T03:16:07.621Z,98242.91
2022-12-15T03:18:34.258Z,98250.25
2022-12-15T03:21:00.997Z,98244.00
2022-12-15T03:23:27.856Z,98242.19
2022-12-15T03:25:55.783Z,98243.63
2022-12-15T03:28:22.918Z,98240.72
2022-12-15T03:30:50.508Z,98252.06
2022-12-15T03:33:18.041Z,98262.19
2022-12-15T03:35:44.786Z,98263.16
2022-12-15T03:38:11.418Z,98251.81
2022-12-15T03:40:38.037Z,98265.53
2022-12-15T03:43:04.682Z,98273.25
2022-12-15T03:45:31.336Z,98279.97
2022-12-15T03:47:58.227Z,98281.81
2022-12-15T03:50:27.350Z,98281.16
2022-12-15T03:52:58.503Z,98272.31
2022-12-15T03:55:25.962Z,98286.50
2022-12-15T03:57:52.829Z,98286.06
2022-12-15T04:00:20.786Z,98287.88
2022-12-15T04:02:50.395Z,98301.50
2022-12-15T04:05:26.042Z,98302.66
2022-12-15T04:07:53.702Z,98304.69
2022-12-15T04:10:20.402Z,98308.22
2022-12-15T04:12:47.146Z,98304.41
2022-12-15T04:15:14.386Z,98309.75
2022-12-15T04:17:41.578Z,98296.66
2022-12-15T04:20:11.376Z,98291.97
2022-12-15T04:22:39.874Z,98315.00
2022-12-15T04:25:33.867Z,98314.41
2022-12-15T04:28:19.232Z,98315.00
2022-12-15T04:31:08.129Z,98310.22
2022-12-15T04:33:54.527Z,98319.00
2022-12-15T04:36:40.155Z,98317.91
2022-12-15T04:39:25.333Z,98308.47
2022-12-15T04:42:11.823Z,98309.19
2022-12-15T04:44:57.255Z,98305.19
2022-12-15T04:47:42.439Z,98314.09
2022-12-15T04:50:27.678Z,98324.38
2022-12-15T04:53:12.864Z,98327.56
2022-12-15T04:55:58.101Z,98332.19
2022-12-15T04:58:43.286Z,98341.00
2022-12-15T05:01:28.839Z,98344.78
2022-12-15T05:04:14.133Z,98340.19
2022-12-15T05:06:59.338Z,98336.28
2022-12-15T05:09:44.291Z,98334.34
2022-12-15T05:12:29.525Z,98339.88
2022-12-15T05:15:14.877Z,98339.97
2022-12-15T05:18:00.226Z,98357.69
2022-12-15T05:20:45.237Z,98356.50
2022-12-15T05:23:35.468Z,98362.88
2022-12-15T05:26:20.448Z,98365.97
2022-12-15T05:29:05.706Z,98368.22
2022-12-15T05:31:50.977Z,98366.69
2022-12-15T05:34:28.702Z,98357.91
2022-12-15T05:36:56.783Z,98357.25
2022-12-15T05:39:24.334Z,98359.50
2022-12-15T05:41:51.983Z,98373.31
2022-12-15T05:44:18.736Z,98374.31
2022-12-15T05:46:45.851Z,98374.22
2022-12-15T05:49:15.437Z,98360.50
2022-12-15T05:51:43.619Z,98365.97
2022-12-15T05:54:11.646Z,98393.28
2022-12-15T05:56:38.382Z,98389.84
2022-12-15T05:59:05.321Z,98385.66
2022-12-15T06:01:32.127Z,98388.47
2022-12-15T06:03:59.315Z,98399.22
2022-12-15T06:06:26.059Z,98398.56
2022-12-15T06:08:52.674Z,98391.03
2022-12-15T06:11:20.086Z,98402.72
2022-12-15T06:13:46.933Z,98410.25
2022-12-15T06:16:18.734Z,98426.22
2022-12-15T06:18:50.264Z,98421.94
2022-12-15T06:21:28.155Z,98417.97
2022-12-15T06:23:55.754Z,98408.91
2022-12-15T06:26:25.530Z,98413.63
2022-12-15T06:28:52.712Z,98418.16
2022-12-15T06:31:22.823Z,98413.44
2022-12-15T06:33:52.503Z,98421.50
2022-12-15T06:36:25.922Z,98440.88
2022-12-15T06:38:52.685Z,98445.94
2022-12-15T06:41:21.380Z,98441.56
2022-12-15T06:43:57.923Z,98436.69
2022-12-15T06:46:25.885Z,98456.00
2022-12-15T06:48:53.296Z,98453.53
2022-12-15T06:51:20.535Z,98459.47
2022-12-15T06:53:54.117Z,98462.22
2022-12-15T06:56:33.686Z,98466.28
2022-12-15T06:59:02.136Z,98475.81
2022-12-15T07:01:29.636Z,98479.63
2022-12-15T07:03:57.140Z,98482.09
2022-12-15T07:06:24.004Z,98477.41
2022-12-15T07:08:53.824Z,98478.84
2022-12-15T07:11:21.670Z,98494.00
2022-12-15T07:13:52.398Z,98492.16
2022-12-15T07:16:19.690Z,98504.34
2022-12-15T07:18:46.385Z,98493.38
2022-12-15T07:21:13.338Z,98499.53
2022-12-15T07:23:54.209Z,98505.63
2022-12-15T07:26:22.114Z,98517.38
2022-12-15T07:28:48.702Z,98529.28
2022-12-15T07:31:15.807Z,98528.34
2022-12-15T07:33:42.771Z,98534.16
2022-12-15T07:36:09.650Z,98528.53
2022-12-15T07:38:36.869Z,98542.25
2022-12-15T07:41:05.158Z,98540.06
2022-12-15T07:43:32.820Z,98545.34
2022-12-15T07:46:00.183Z,98550.25
2022-12-15T07:48:27.438Z,98568.50
2022-12-15T07:51:02.741Z,98577.78
2022-12-15T07:53:35.019Z,98574.72
2022-12-15T07:56:10.123Z,98586.69
2022-12-15T07:58:37.965Z,98583.06
2022-12-15T08:01:07.033Z,98588.78
2022-12-15T08:03:34.658Z,98587.78
2022-12-15T08:06:06.195Z,98582.97
2022-12-15T08:08:35.554Z,98590.78
2022-12-15T08:11:06.680Z,98597.72
2022-12-15T08:16:21.313Z,98565.25
2022-12-15T08:18:48.812Z,98570.88
2022-12-15T08:21:15.667Z,98585.06
2022-12-15T08:23:42.330Z,98572.41
2022-12-15T08:26:14.841Z,98584.94
2022-12-15T08:28:42.125Z,98600.69
2022-12-15T08:34:11.257Z,98604.44
2022-12-15T08:36:38.885Z,98618.88
2022-12-15T08:39:05.700Z,98623.03
2022-12-15T08:41:33.004Z,98628.63
2022-12-15T08:44:00.802Z,98623.06
2022-12-15T08:46:29.735Z,98637.66
2022-12-15T08:48:57.373Z,98621.00
2022-12-15T08:51:25.849Z,98622.78
2022-12-15T08:53:56.330Z,98641.13
2022-12-15T08:56:24.260Z,98644.59
2022-12-15T09:14:12.305Z,98631.47
2022-12-15T09:16:50.569Z,98637.44
2022-12-15T09:19:23.844Z,98640.22
2022-12-15T09:21:51.049Z,98624.81
2022-12-15T09:24:28.768Z,98618.50
2022-12-15T09:26:59.540Z,98626.53
2022-12-15T09:29:26.279Z,98611.13
2022-12-15T09:31:52.931Z,98612.81
2022-12-15T09:34:19.627Z,98629.50
2022-12-15T09:36:46.683Z,98637.69
2022-12-15T09:39:14.485Z,98631.78
2022-12-15T09:41:57.334Z,98638.56
2022-12-15T09:44:25.146Z,98644.94
2022-12-15T09:50:03.040Z,98643.03
2022-12-15T09:52:43.930Z,98638.03
2022-12-15T09:55:22.527Z,98640.63
2022-12-15T09:58:00.666Z,98658.94
2022-12-15T10:00:43.543Z,98651.16
2022-12-15T10:03:47.279Z,98646.88
2022-12-15T10:06:33.064Z,98637.56
2022-12-15T10:09:29.625Z,98642.25
2022-12-15T10:12:02.958Z,98653.09
2022-12-15T10:14:35.508Z,98651.13
2022-12-15T10:17:11.454Z,98653.91
2022-12-15T10:19:53.385Z,98648.50
2022-12-15T10:22:24.723Z,98649.16
2022-12-15T10:25:10.221Z,98640.44
2022-12-15T10:27:56.090Z,98639.22
2022-12-15T10:30:23.280Z,98639.50
2022-12-15T10:33:03.495Z,98636.59
2022-12-15T10:35:37.523Z,98629.44
2022-12-15T10:38:09.552Z,98622.78
2022-12-15T10:40:55.309Z,98620.44
2022-12-15T10:43:28.179Z,98609.97
2022-12-15T10:46:15.174Z,98622.75
2022-12-15T10:48:54.178Z,98626.50
2022-12-15T10:51:33.465Z,98637.44
2022-12-15T10:54:15.433Z,98637.94
2022-12-15T10:57:16.602Z,98640.47
2022-12-15T10:59:46.786Z,98621.94
2022-12-15T11:02:23.776Z,98629.22
2022-12-15T11:05:18.863Z,98619.31
2022-12-15T11:07:53.240Z,98628.56
2022-12-15T12:53:33.276Z,98638.91
2022-12-15T12:56:00.205Z,98643.88
2022-12-15T12:58:32.749Z,98652.84
2022-12-15T13:01:05.751Z,98647.16
2022-12-15T13:03:32.858Z,98650.63
2022-12-15T13:05:59.809Z,98657.66
2022-12-15T13:08:29.028Z,98656.06
2022-12-15T23:26:51.356Z,98257.88
2022-12-15T23:29:19.638Z,98258.50
2022-12-15T23:32:03.406Z,98271.47
2022-12-15T23:34:32.635Z,98259.13
